Time;durP1;ratioP1;P1;durP2;ratioP2;P2;SDS_P1;SDS_P2;PMS_P1;PMS_P2;Temp;Humidity;BMP_temperature;BMP_pressure;BME280_temperature;BME280_humidity;BME280_pressure;Samples;Min_cycle;Max_cycle;Signal;HPM_P1;HPM_P2
2021/07/30 00:00:25;;;;;;;12.35;5.85;;;14.00;99.90;;;;;;5127874;27;20050;-77
2021/07/30 00:02:51;;;;;;;11.20;5.22;;;14.00;99.90;;;;;;5131961;27;20039;-79
2021/07/30 00:05:16;;;;;;;;;;;14.00;99.90;;;;;;5123452;27;20067;-80
2021/07/30 00:07:44;;;;;;;10.73;6.72;;;13.90;99.90;;;;;;5130701;27;19915;-75
2021/07/30 00:10:10;;;;;;;13.32;6.15;;;13.90;99.90;;;;;;5125566;27;20040;-74
2021/07/30 00:12:36;;;;;;;10.40;6.68;;;13.90;99.90;;;;;;5131082;27;20086;-76
2021/07/30 00:15:03;;;;;;;15.70;6.10;;;14.00;99.90;;;;;;5130267;27;20055;-74
2021/07/30 00:17:29;;;;;;;11.07;6.32;;;13.90;99.90;;;;;;5121795;27;20034;-75
2021/07/30 00:19:55;;;;;;;14.32;5.65;;;13.90;99.90;;;;;;5118083;27;20469;-75
2021/07/30 00:22:21;;;;;;;15.23;6.45;;;13.90;99.90;;;;;;5127806;27;20396;-79
2021/07/30 00:24:46;;;;;;;12.57;6.60;;;13.90;99.90;;;;;;5120285;27;20363;-76
2021/07/30 00:27:12;;;;;;;11.63;7.00;;;13.80;99.90;;;;;;5117429;27;20059;-79
2021/07/30 00:29:38;;;;;;;10.32;6.80;;;13.80;99.90;;;;;;5121041;27;20028;-79
2021/07/30 00:32:06;;;;;;;14.90;7.15;;;13.80;99.90;;;;;;5112849;27;20051;-77
2021/07/30 00:34:32;;;;;;;9.25;6.03;;;13.70;99.90;;;;;;5126388;27;20038;-78
2021/07/30 00:36:59;;;;;;;11.10;6.57;;;13.70;99.90;;;;;;5126988;27;20853;-79
2021/07/30 00:39:25;;;;;;;16.20;6.63;;;13.70;99.90;;;;;;5125680;27;20110;-77
2021/07/30 00:41:51;;;;;;;14.07;6.45;;;13.70;99.90;;;;;;5128697;27;20031;-79
2021/07/30 00:44:16;;;;;;;21.90;7.03;;;13.70;99.90;;;;;;5106600;28;20409;-78
2021/07/30 00:46:42;;;;;;;;;;;13.60;99.90;;;;;;5111884;27;20039;-78
2021/07/30 00:49:08;;;;;;;14.60;6.93;;;13.60;99.90;;;;;;5122078;27;19923;-79
2021/07/30 00:51:36;;;;;;;14.13;6.65;;;13.50;99.90;;;;;;5107169;28;20032;-79
2021/07/30 00:54:02;;;;;;;13.48;6.60;;;13.50;99.90;;;;;;5117573;27;20107;-78
2021/07/30 00:56:30;;;;;;;13.80;8.02;;;13.50;99.90;;;;;;5122622;27;20027;-76
2021/07/30 00:58:57;;;;;;;12.93;6.93;;;13.50;99.90;;;;;;5133055;27;20080;-78
2021/07/30 01:01:23;;;;;;;15.52;7.30;;;13.50;99.90;;;;;;5116012;27;20045;-81
2021/07/30 01:03:49;;;;;;;15.68;7.47;;;13.50;99.90;;;;;;5124777;27;20069;-79
2021/07/30 01:06:15;;;;;;;15.85;8.05;;;13.40;99.90;;;;;;5128611;27;20488;-79
2021/07/30 01:08:40;;;;;;;;;;;13.40;99.90;;;;;;5131172;27;20036;-77
2021/07/30 01:11:06;;;;;;;16.73;8.65;;;13.40;99.90;;;;;;5129457;27;20202;-79
2021/07/30 01:13:32;;;;;;;15.73;8.00;;;13.40;99.90;;;;;;5119707;27;20071;-79
2021/07/30 01:15:59;;;;;;;11.80;7.32;;;13.40;99.90;;;;;;5123338;27;20380;-79
2021/07/30 01:18:25;;;;;;;14.50;7.45;;;13.30;99.90;;;;;;5120168;27;20042;-79
2021/07/30 01:21:08;;;;;;;14.73;7.70;;;13.30;99.90;;;;;;5130079;27;20696;-82
2021/07/30 01:23:34;;;;;;;15.75;7.75;;;13.20;99.90;;;;;;5124548;27;20389;-78
2021/07/30 01:26:00;;;;;;;14.70;7.72;;;13.10;99.90;;;;;;5123867;27;20035;-81
2021/07/30 01:28:30;;;;;;;14.68;8.23;;;13.10;99.90;;;;;;5125713;27;20038;-82
2021/07/30 01:30:57;;;;;;;12.73;7.38;;;13.10;99.90;;;;;;5131000;27;20034;-78
2021/07/30 01:33:22;;;;;;;13.43;7.63;;;13.10;99.90;;;;;;5118047;27;20043;-77
2021/07/30 01:35:48;;;;;;;12.45;8.02;;;13.00;99.90;;;;;;5122660;27;20039;-76
2021/07/30 01:38:14;;;;;;;15.93;7.85;;;13.10;99.90;;;;;;5117223;27;20044;-76
2021/07/30 01:40:40;;;;;;;12.02;7.20;;;13.10;99.90;;;;;;5121400;27;20086;-79
2021/07/30 01:43:06;;;;;;;13.57;7.90;;;13.10;99.90;;;;;;5114556;27;20080;-78
2021/07/30 01:45:32;;;;;;;17.70;8.25;;;13.10;99.90;;;;;;5123831;27;20043;-78
2021/07/30 01:47:57;;;;;;;17.42;8.30;;;13.00;99.90;;;;;;5123928;27;20034;-78
2021/07/30 01:50:23;;;;;;;11.85;7.15;;;13.00;99.90;;;;;;5124577;27;20100;-80
2021/07/30 01:52:49;;;;;;;12.23;8.00;;;13.00;99.90;;;;;;5112696;28;20045;-79
2021/07/30 01:55:15;;;;;;;14.52;7.90;;;13.00;99.90;;;;;;5122645;27;20035;-79
2021/07/30 01:57:40;;;;;;;16.75;7.97;;;13.00;99.90;;;;;;5124582;27;20046;-78
2021/07/30 02:00:07;;;;;;;18.10;8.73;;;13.00;99.90;;;;;;5122622;27;20048;-78
2021/07/30 02:02:33;;;;;;;;;;;13.00;99.90;;;;;;5123917;27;20427;-83
2021/07/30 02:05:02;;;;;;;17.47;8.80;;;12.90;99.90;;;;;;5122364;27;19923;-77
2021/07/30 02:07:28;;;;;;;16.35;8.02;;;12.90;99.90;;;;;;5130626;27;20055;-81
2021/07/30 02:09:54;;;;;;;16.35;9.10;;;12.80;99.90;;;;;;5122325;27;20074;-79
2021/07/30 02:12:20;;;;;;;15.00;8.25;;;12.80;99.90;;;;;;5133091;27;20088;-81
2021/07/30 02:14:46;;;;;;;16.85;8.90;;;12.80;99.90;;;;;;5129702;27;20039;-77
2021/07/30 02:17:12;;;;;;;15.35;8.52;;;12.70;99.90;;;;;;5131075;27;20035;-81
2021/07/30 02:19:37;;;;;;;13.07;8.88;;;12.80;99.90;;;;;;5124385;27;20524;-76
2021/07/30 02:22:03;;;;;;;14.20;8.75;;;12.80;99.90;;;;;;5130954;28;20118;-79
2021/07/30 02:24:29;;;;;;;17.08;8.80;;;12.80;99.90;;;;;;5123510;28;20115;-79
2021/07/30 02:26:55;;;;;;;13.68;9.20;;;12.80;99.90;;;;;;5126091;28;20039;-80
2021/07/30 02:29:21;;;;;;;14.57;9.15;;;12.80;99.90;;;;;;5127930;28;20586;-77
2021/07/30 02:31:48;;;;;;;14.18;8.82;;;12.80;99.90;;;;;;5131001;27;20393;-77
2021/07/30 02:34:14;;;;;;;20.80;9.75;;;12.70;99.90;;;;;;5131848;27;20042;-79
2021/07/30 02:36:40;;;;;;;;;;;12.70;99.90;;;;;;5131361;27;20492;-80
2021/07/30 02:39:06;;;;;;;20.33;8.88;;;12.70;99.90;;;;;;5131752;27;19989;-78
2021/07/30 02:41:33;;;;;;;19.20;9.75;;;12.70;99.90;;;;;;5136332;27;20092;-77
2021/07/30 02:43:59;;;;;;;16.00;9.10;;;12.70;99.90;;;;;;5107795;28;20461;-81
2021/07/30 02:46:25;;;;;;;16.58;9.02;;;12.70;99.90;;;;;;5128991;27;20035;-79
2021/07/30 02:48:51;;;;;;;;;;;12.70;99.90;;;;;;5131944;27;20036;-79
2021/07/30 02:51:18;;;;;;;13.48;8.07;;;12.70;99.90;;;;;;5125555;27;19919;-77
2021/07/30 02:53:44;;;;;;;15.57;8.85;;;12.70;99.90;;;;;;5135517;27;20039;-79
2021/07/30 02:56:10;;;;;;;;;;;12.60;99.90;;;;;;5135308;27;20035;-79
2021/07/30 02:58:38;;;;;;;22.50;8.90;;;12.60;99.90;;;;;;5127326;27;19920;-79
2021/07/30 03:01:04;;;;;;;16.00;9.48;;;12.60;99.90;;;;;;5127949;27;20031;-80
2021/07/30 03:03:31;;;;;;;14.23;9.30;;;12.60;99.90;;;;;;5124453;27;20039;-78
2021/07/30 03:05:58;;;;;;;20.02;10.35;;;12.60;99.90;;;;;;5134878;27;20121;-79
2021/07/30 03:08:25;;;;;;;17.38;10.02;;;12.60;99.90;;;;;;5127237;27;20036;-79
2021/07/30 03:10:58;;;;;;;16.35;9.38;;;12.60;99.90;;;;;;5117192;27;20045;-77
2021/07/30 03:13:27;;;;;;;20.10;9.40;;;12.60;99.90;;;;;;5134380;27;20051;-80
2021/07/30 03:15:56;;;;;;;16.27;9.05;;;12.60;99.90;;;;;;5131913;27;20035;-81
2021/07/30 03:18:23;;;;;;;16.50;9.43;;;12.60;99.90;;;;;;5121317;27;20096;-82
2021/07/30 03:20:49;;;;;;;17.10;9.95;;;12.50;99.90;;;;;;5128065;27;20115;-79
2021/07/30 03:23:15;;;;;;;14.93;9.27;;;12.50;99.90;;;;;;5125178;27;20141;-77
2021/07/30 03:25:41;;;;;;;;;;;12.50;99.90;;;;;;5135324;27;20046;-79
2021/07/30 03:28:06;;;;;;;14.88;9.18;;;12.40;99.90;;;;;;5134575;27;19923;-79
2021/07/30 03:30:46;;;;;;;16.50;9.93;;;12.40;99.90;;;;;;5135150;27;20043;-78
2021/07/30 03:33:12;;;;;;;;;;;12.40;99.90;;;;;;5133296;27;20035;-78
2021/07/30 03:35:38;;;;;;;15.68;9.80;;;12.40;99.90;;;;;;5129335;27;20426;-77
2021/07/30 03:38:04;;;;;;;16.30;8.80;;;12.50;99.90;;;;;;5123448;27;20027;-79
2021/07/30 03:40:30;;;;;;;17.08;9.43;;;12.60;99.90;;;;;;5133223;27;20050;-76
2021/07/30 03:42:56;;;;;;;18.10;8.90;;;12.60;99.90;;;;;;5131920;27;20039;-77
2021/07/30 03:45:22;;;;;;;21.60;9.82;;;12.60;99.90;;;;;;5132247;27;20409;-78
2021/07/30 03:47:48;;;;;;;19.10;9.10;;;12.50;99.90;;;;;;5131900;27;20522;-78
2021/07/30 03:50:14;;;;;;;19.10;9.63;;;12.50;99.90;;;;;;5126298;27;20045;-79
2021/07/30 03:52:40;;;;;;;19.17;9.68;;;12.50;99.90;;;;;;5126250;27;20053;-78
2021/07/30 03:55:07;;;;;;;16.75;8.50;;;12.50;99.90;;;;;;5123932;27;20041;-77
2021/07/30 03:57:32;;;;;;;15.38;9.07;;;12.50;99.90;;;;;;5134592;27;20114;-77
2021/07/30 03:59:58;;;;;;;16.85;9.43;;;12.50;99.90;;;;;;5132722;27;20118;-80
2021/07/30 04:02:24;;;;;;;16.45;9.73;;;12.50;99.90;;;;;;5132467;27;20130;-76
2021/07/30 04:04:50;;;;;;;17.30;8.70;;;12.60;99.90;;;;;;5132093;27;20042;-81
2021/07/30 04:07:16;;;;;;;19.65;9.23;;;12.60;99.90;;;;;;5135067;27;20028;-81
2021/07/30 04:09:42;;;;;;;;;;;12.60;99.90;;;;;;5114424;27;20083;-79
2021/07/30 04:12:09;;;;;;;14.32;8.40;;;12.60;99.90;;;;;;5133084;27;19922;-79
2021/07/30 04:14:35;;;;;;;19.73;8.30;;;12.60;99.90;;;;;;5126215;27;20392;-80
2021/07/30 04:17:01;;;;;;;;;;;12.60;99.90;;;;;;5136978;27;20046;-79
2021/07/30 04:19:27;;;;;;;22.27;9.65;;;12.60;99.90;;;;;;5128899;27;19923;-78
2021/07/30 04:21:53;;;;;;;19.70;9.15;;;12.60;99.90;;;;;;5131508;27;20037;-78
2021/07/30 04:24:18;;;;;;;17.83;9.50;;;12.70;99.90;;;;;;5129933;27;20160;-77
2021/07/30 04:26:44;;;;;;;16.25;8.48;;;12.70;99.90;;;;;;5128459;27;20065;-79
2021/07/30 04:29:10;;;;;;;20.70;9.20;;;12.80;99.90;;;;;;5133511;27;20039;-78
2021/07/30 04:31:40;;;;;;;15.95;8.70;;;12.80;99.90;;;;;;5129405;27;20028;-77
2021/07/30 04:34:07;;;;;;;16.35;8.90;;;12.80;99.90;;;;;;5133137;27;20047;-79
2021/07/30 04:36:33;;;;;;;17.05;9.13;;;12.80;99.90;;;;;;5130353;27;20408;-78
2021/07/30 04:38:59;;;;;;;15.57;9.88;;;12.90;99.90;;;;;;5133834;27;20114;-77
2021/07/30 04:41:25;;;;;;;17.08;8.25;;;12.90;99.90;;;;;;5133579;27;20380;-82
2021/07/30 04:43:51;;;;;;;19.65;9.20;;;12.90;99.90;;;;;;5134021;27;20126;-80
2021/07/30 04:46:18;;;;;;;20.20;9.18;;;13.00;99.90;;;;;;5131257;27;20074;-77
2021/07/30 04:48:44;;;;;;;14.77;8.88;;;13.10;99.90;;;;;;5134278;27;20059;-76
2021/07/30 04:51:12;;;;;;;14.02;7.90;;;13.10;99.90;;;;;;5125599;27;20103;-78
2021/07/30 04:53:37;;;;;;;17.17;9.07;;;13.10;99.90;;;;;;5131722;27;20047;-80
2021/07/30 04:56:04;;;;;;;20.10;9.68;;;13.10;99.90;;;;;;5132194;27;20038;-77
2021/07/30 04:58:30;;;;;;;18.95;9.00;;;13.10;99.90;;;;;;5133762;27;20110;-78
2021/07/30 05:00:56;;;;;;;14.40;9.13;;;13.10;99.90;;;;;;5131209;27;20137;-77
2021/07/30 05:03:21;;;;;;;;;;;13.10;99.90;;;;;;5129823;27;20107;-80
2021/07/30 05:05:47;;;;;;;17.13;10.35;;;13.10;99.90;;;;;;5134014;27;19919;-81
2021/07/30 05:08:14;;;;;;;16.48;9.45;;;13.10;99.90;;;;;;5120420;27;20065;-79
2021/07/30 05:10:39;;;;;;;17.13;9.18;;;13.20;99.90;;;;;;5106875;27;20118;-82
2021/07/30 05:13:05;;;;;;;20.23;10.25;;;13.20;99.90;;;;;;5132620;27;20388;-80
2021/07/30 05:15:31;;;;;;;16.58;9.25;;;13.20;99.90;;;;;;5133347;27;20472;-80
2021/07/30 05:18:00;;;;;;;14.27;9.32;;;13.30;99.90;;;;;;5129181;27;20480;-78
2021/07/30 05:20:38;;;;;;;18.98;9.55;;;13.30;99.90;;;;;;5128183;27;20388;-81
2021/07/30 05:23:04;;;;;;;15.88;10.02;;;13.40;99.90;;;;;;5125239;27;20035;-80
2021/07/30 05:25:30;;;;;;;15.85;9.25;;;13.50;99.90;;;;;;5120933;27;20064;-78
2021/07/30 05:27:56;;;;;;;19.48;8.77;;;13.60;99.90;;;;;;5126167;27;20035;-76
2021/07/30 05:30:25;;;;;;;20.85;8.90;;;13.60;99.90;;;;;;5129190;27;20039;-78
2021/07/30 05:32:51;;;;;;;16.48;9.50;;;13.70;99.90;;;;;;5129909;27;20088;-78
2021/07/30 05:35:17;;;;;;;20.15;9.45;;;13.70;99.90;;;;;;5128082;27;20448;-76
2021/07/30 05:37:43;;;;;;;17.73;8.82;;;13.80;99.90;;;;;;5122355;27;20429;-79
2021/07/30 05:40:10;;;;;;;13.40;9.10;;;13.90;99.90;;;;;;5132128;27;20189;-78
2021/07/30 05:42:36;;;;;;;19.15;9.00;;;14.00;99.90;;;;;;5131879;27;20076;-79
2021/07/30 05:45:02;;;;;;;14.55;8.20;;;14.00;99.90;;;;;;5128273;27;20047;-78
2021/07/30 05:47:32;;;;;;;17.35;9.13;;;14.20;99.90;;;;;;5130622;27;20043;-78
2021/07/30 05:49:58;;;;;;;;;;;14.30;99.90;;;;;;5111463;27;20042;-78
2021/07/30 05:52:24;;;;;;;15.10;9.15;;;14.40;99.90;;;;;;5133316;27;20327;-78
2021/07/30 05:54:49;;;;;;;17.42;9.15;;;14.40;99.90;;;;;;5124634;27;20541;-81
2021/07/30 05:57:16;;;;;;;14.68;8.80;;;14.50;99.90;;;;;;5119709;27;20063;-83
2021/07/30 05:59:41;;;;;;;16.10;8.52;;;14.50;99.90;;;;;;5125008;27;20043;-78
2021/07/30 06:02:07;;;;;;;18.83;9.25;;;14.50;99.90;;;;;;5119921;27;20132;-76
2021/07/30 06:04:34;;;;;;;18.58;8.45;;;14.60;99.90;;;;;;5128149;27;20035;-79
2021/07/30 06:07:00;;;;;;;14.73;8.70;;;14.60;99.90;;;;;;5132743;27;20059;-80
2021/07/30 06:09:25;;;;;;;17.45;10.10;;;14.70;99.90;;;;;;5130155;27;20063;-76
2021/07/30 06:11:51;;;;;;;;;;;14.70;99.90;;;;;;5122811;27;20536;-80
2021/07/30 06:14:17;;;;;;;15.48;8.77;;;14.80;99.90;;;;;;5131899;27;19923;-80
2021/07/30 06:16:43;;;;;;;16.33;8.50;;;14.90;99.90;;;;;;5131522;27;20086;-80
2021/07/30 06:19:08;;;;;;;;;;;15.00;99.90;;;;;;5130176;27;20040;-80
2021/07/30 06:21:34;;;;;;;15.95;9.07;;;15.10;99.90;;;;;;5131035;27;19915;-80
2021/07/30 06:24:01;;;;;;;15.60;8.15;;;15.20;99.90;;;;;;5124845;28;20035;-76
2021/07/30 06:26:27;;;;;;;15.80;8.20;;;15.30;99.90;;;;;;5121532;28;20067;-77
2021/07/30 06:28:53;;;;;;;13.38;7.63;;;15.40;99.90;;;;;;5121814;28;20062;-77
2021/07/30 06:31:18;;;;;;;;;;;15.50;99.90;;;;;;5125417;28;20586;-79
2021/07/30 06:33:45;;;;;;;13.27;8.18;;;15.60;99.90;;;;;;5124781;28;20376;-82
2021/07/30 06:36:10;;;;;;;11.68;7.85;;;15.70;99.90;;;;;;5122873;28;20484;-77
2021/07/30 06:38:36;;;;;;;16.45;8.48;;;15.80;99.90;;;;;;5117586;28;20111;-77
2021/07/30 06:41:02;;;;;;;15.35;7.97;;;16.00;99.90;;;;;;5121731;28;20110;-80
2021/07/30 06:43:28;;;;;;;12.30;7.38;;;16.00;99.90;;;;;;5125765;28;20035;-79
2021/07/30 06:45:59;;;;;;;17.88;7.53;;;16.10;99.90;;;;;;5116180;28;20059;-78
2021/07/30 06:48:25;;;;;;;12.63;7.45;;;16.20;99.90;;;;;;5112942;28;20039;-79
2021/07/30 06:50:53;;;;;;;13.93;8.52;;;16.30;99.90;;;;;;5128858;28;20042;-80
2021/07/30 06:53:19;;;;;;;15.13;7.43;;;16.40;99.90;;;;;;5110123;28;20039;-78
2021/07/30 06:55:45;;;;;;;13.90;6.95;;;16.40;99.90;;;;;;5118832;28;20038;-77
2021/07/30 06:58:10;;;;;;;;;;;16.50;99.90;;;;;;5117165;27;20059;-82
2021/07/30 07:00:36;;;;;;;15.32;7.93;;;16.60;99.90;;;;;;5111666;28;19939;-79
2021/07/30 07:03:05;;;;;;;14.73;7.32;;;16.70;99.90;;;;;;5118722;28;20054;-78
2021/07/30 07:05:31;;;;;;;11.05;7.38;;;16.80;99.90;;;;;;5118713;28;20500;-79
2021/07/30 07:07:56;;;;;;;13.05;8.13;;;16.90;99.90;;;;;;5123946;28;20039;-77
2021/07/30 07:10:22;;;;;;;13.75;7.47;;;17.00;99.90;;;;;;5116222;27;20039;-82
2021/07/30 07:12:48;;;;;;;15.20;7.85;;;17.00;99.90;;;;;;5106201;28;20054;-77
2021/07/30 07:15:13;;;;;;;;;;;17.00;99.90;;;;;;5077627;28;20048;-76
2021/07/30 07:17:39;;;;;;;15.10;7.18;;;17.00;99.90;;;;;;5110654;28;19942;-77
2021/07/30 07:20:05;;;;;;;;;;;17.10;99.90;;;;;;5121337;28;20032;-75
2021/07/30 07:22:31;;;;;;;16.85;8.15;;;17.30;99.90;;;;;;5108678;27;19923;-75
2021/07/30 07:24:57;;;;;;;12.20;7.22;;;17.30;99.90;;;;;;5126655;27;20375;-75
2021/07/30 07:27:23;;;;;;;;;;;17.50;99.90;;;;;;5116076;27;20252;-76
2021/07/30 07:29:49;;;;;;;12.50;6.80;;;17.60;99.90;;;;;;5118866;27;19923;-75
2021/07/30 07:32:14;;;;;;;;;;;17.70;99.90;;;;;;5122829;27;20278;-75
2021/07/30 07:34:40;;;;;;;15.23;7.90;;;17.80;99.90;;;;;;5117055;27;20039;-76
2021/07/30 07:37:06;;;;;;;;;;;17.90;99.90;;;;;;5115002;27;20446;-75
2021/07/30 07:39:32;;;;;;;12.98;7.47;;;17.90;99.90;;;;;;5119611;27;20433;-75
2021/07/30 07:41:58;;;;;;;12.65;6.80;;;18.00;99.90;;;;;;5123882;27;20405;-75
2021/07/30 07:44:25;;;;;;;12.70;7.00;;;18.10;99.90;;;;;;5110272;28;20048;-76
2021/07/30 07:46:52;;;;;;;18.00;7.45;;;18.10;99.90;;;;;;5117942;27;20086;-76
2021/07/30 07:49:18;;;;;;;12.52;7.25;;;18.20;99.90;;;;;;5124301;27;20032;-76
2021/07/30 07:51:43;;;;;;;15.82;6.30;;;18.40;99.90;;;;;;5129246;27;20027;-75
2021/07/30 07:54:09;;;;;;;;;;;18.50;99.90;;;;;;5087776;27;20058;-75
2021/07/30 07:56:35;;;;;;;10.70;6.43;;;18.50;99.90;;;;;;5125470;27;19974;-76
2021/07/30 07:59:01;;;;;;;;;;;18.60;99.90;;;;;;5112343;27;20362;-76
2021/07/30 08:01:28;;;;;;;15.68;7.63;;;18.40;99.90;;;;;;5122715;27;19931;-76
2021/07/30 08:03:54;;;;;;;14.15;6.85;;;18.80;99.90;;;;;;5121854;27;20035;-76
2021/07/30 08:06:21;;;;;;;;;;;18.90;99.90;;;;;;5116578;27;20036;-76
2021/07/30 08:08:47;;;;;;;12.60;6.65;;;18.90;99.90;;;;;;5101347;28;19931;-75
2021/07/30 08:11:13;;;;;;;11.93;6.43;;;18.90;99.90;;;;;;5119789;27;20106;-75
2021/07/30 08:13:39;;;;;;;;;;;19.00;99.90;;;;;;5114414;27;20122;-76
2021/07/30 08:16:05;;;;;;;11.55;6.85;;;19.20;99.90;;;;;;5109212;27;20276;-76
2021/07/30 08:18:31;;;;;;;13.15;6.38;;;19.30;99.90;;;;;;5120585;27;20027;-76
2021/07/30 08:20:57;;;;;;;12.35;6.82;;;19.40;99.90;;;;;;5120987;27;20113;-75
2021/07/30 08:23:23;;;;;;;;;;;19.60;99.90;;;;;;5119322;27;20044;-76
2021/07/30 08:25:49;;;;;;;11.57;6.35;;;19.80;99.90;;;;;;5116525;27;20002;-80
2021/07/30 08:28:14;;;;;;;;;;;19.90;99.90;;;;;;5119383;27;20035;-78
2021/07/30 08:30:43;;;;;;;14.90;7.10;;;19.90;99.90;;;;;;5126737;27;19935;-78
2021/07/30 08:33:09;;;;;;;13.68;6.95;;;19.80;99.90;;;;;;5126529;27;20404;-78
2021/07/30 08:35:35;;;;;;;17.25;7.28;;;19.80;99.90;;;;;;5116435;27;20114;-78
2021/07/30 08:38:02;;;;;;;13.10;6.57;;;19.80;99.90;;;;;;5128441;27;20035;-77
2021/07/30 08:40:31;;;;;;;12.65;7.22;;;19.90;99.90;;;;;;5116901;27;20038;-79
2021/07/30 08:42:58;;;;;;;12.57;7.30;;;19.90;99.90;;;;;;5126963;27;20047;-79
2021/07/30 08:45:25;;;;;;;14.00;6.93;;;19.90;99.90;;;;;;5117754;27;20833;-80
2021/07/30 08:47:51;;;;;;;14.68;7.22;;;19.90;99.90;;;;;;5110105;27;20047;-78
2021/07/30 08:50:17;;;;;;;13.80;6.90;;;19.80;99.90;;;;;;5117139;27;20031;-78
2021/07/30 08:52:44;;;;;;;14.95;6.75;;;19.70;99.90;;;;;;5123535;27;20279;-78
2021/07/30 08:55:15;;;;;;;12.35;7.03;;;19.70;99.90;;;;;;5124213;27;20027;-78
2021/07/30 08:57:42;;;;;;;16.92;7.80;;;19.90;99.90;;;;;;5100127;27;20492;-76
2021/07/30 09:00:13;;;;;;;14.98;7.78;;;19.90;99.90;;;;;;5120492;27;20031;-76
2021/07/30 09:02:39;;;;;;;12.15;7.05;;;20.10;99.90;;;;;;5114786;27;20059;-76
2021/07/30 09:05:27;;;;;;;13.35;6.85;;;20.10;99.90;;;;;;5119465;27;20039;-77
2021/07/30 09:07:54;;;;;;;13.25;6.90;;;20.20;99.90;;;;;;5118426;27;20046;-77
2021/07/30 09:10:30;;;;;;;10.65;6.45;;;20.30;99.90;;;;;;5115715;27;20067;-76
2021/07/30 09:13:15;;;;;;;;;;;20.30;99.90;;;;;;5129821;27;20035;-77
2021/07/30 09:15:41;;;;;;;11.55;6.88;;;20.30;99.90;;;;;;5121956;27;19954;-80
2021/07/30 09:18:22;;;;;;;12.02;6.80;;;20.40;99.90;;;;;;5123374;27;20054;-78
2021/07/30 09:20:48;;;;;;;10.50;5.65;;;20.30;99.90;;;;;;5125131;27;20124;-78
2021/07/30 09:23:18;;;;;;;10.90;6.20;;;20.20;99.90;;;;;;5123600;27;20480;-77
2021/07/30 09:25:44;;;;;;;11.93;6.63;;;20.20;99.90;;;;;;5114241;27;20035;-78
2021/07/30 09:28:10;;;;;;;13.57;6.72;;;20.10;99.90;;;;;;5103854;28;20063;-79
2021/07/30 09:30:36;;;;;;;13.80;6.57;;;20.00;99.90;;;;;;5103048;27;20038;-79
2021/07/30 09:33:02;;;;;;;13.60;6.78;;;20.10;99.90;;;;;;5120269;27;20137;-78
2021/07/30 09:35:28;;;;;;;15.82;6.93;;;20.30;99.90;;;;;;5104631;27;20363;-81
2021/07/30 09:38:13;;;;;;;8.50;6.10;;;20.50;99.90;;;;;;5106356;27;20494;-79
2021/07/30 09:40:39;;;;;;;10.45;6.20;;;20.60;99.90;;;;;;5121718;27;20089;-77
2021/07/30 09:43:25;;;;;;;13.23;6.22;;;20.70;99.90;;;;;;5122517;27;20560;-78
2021/07/30 09:46:14;;;;;;;10.20;6.35;;;20.70;99.90;;;;;;5129718;27;20047;-79
2021/07/30 09:48:49;;;;;;;;;;;20.80;99.90;;;;;;5119573;27;20127;-79
2021/07/30 09:51:16;;;;;;;11.15;5.85;;;20.90;99.90;;;;;;5109274;27;19919;-79
2021/07/30 09:53:44;;;;;;;14.40;5.72;;;21.00;99.90;;;;;;5119419;27;20041;-77
2021/07/30 09:56:15;;;;;;;11.48;5.28;;;21.00;99.90;;;;;;5120645;27;20122;-78
2021/07/30 09:58:44;;;;;;;8.52;5.68;;;21.30;99.90;;;;;;5121328;27;20028;-80
2021/07/30 10:01:17;;;;;;;9.85;5.15;;;21.60;99.90;;;;;;5109735;27;20039;-79
2021/07/30 10:03:45;;;;;;;8.77;5.18;;;21.70;99.30;;;;;;5120175;27;20122;-83
2021/07/30 10:06:13;;;;;;;10.63;5.40;;;21.70;98.20;;;;;;5090029;27;20039;-82
2021/07/30 10:08:41;;;;;;;8.77;5.35;;;21.60;98.50;;;;;;5122209;27;20032;-81
2021/07/30 10:11:11;;;;;;;11.82;5.80;;;21.50;99.90;;;;;;5128011;27;20046;-82
2021/07/30 10:13:50;;;;;;;6.38;4.25;;;21.60;99.80;;;;;;5129463;27;20043;-83
2021/07/30 10:16:18;;;;;;;9.02;4.35;;;21.70;99.90;;;;;;5120096;27;20054;-82
2021/07/30 10:18:49;;;;;;;7.22;4.10;;;22.00;99.90;;;;;;5120031;27;20031;-82
2021/07/30 10:21:21;;;;;;;8.48;4.72;;;22.10;98.30;;;;;;5127379;27;20047;-81
2021/07/30 10:23:50;;;;;;;7.78;4.90;;;22.20;96.50;;;;;;5117117;27;20043;-80
2021/07/30 10:26:22;;;;;;;10.77;4.32;;;22.10;94.00;;;;;;5127401;28;20035;-80
2021/07/30 10:28:48;;;;;;;8.18;4.30;;;22.00;95.40;;;;;;5127513;27;20115;-79
2021/07/30 10:31:15;;;;;;;8.23;4.55;;;21.90;94.00;;;;;;5122736;28;20057;-78
2021/07/30 10:33:45;;;;;;;7.18;4.13;;;21.80;93.70;;;;;;5118022;28;20093;-78
2021/07/30 10:36:13;;;;;;;7.72;5.35;;;21.70;94.70;;;;;;5127560;27;20057;-78
2021/07/30 10:38:39;;;;;;;6.88;4.55;;;21.80;96.20;;;;;;5114222;27;20081;-78
2021/07/30 10:41:13;;;;;;;8.60;4.38;;;21.90;98.00;;;;;;5119386;28;20035;-79
2021/07/30 10:43:50;;;;;;;8.82;4.40;;;22.10;95.50;;;;;;5121264;27;20480;-78
2021/07/30 10:46:18;;;;;;;6.85;4.10;;;22.20;95.70;;;;;;5121088;28;20077;-78
2021/07/30 10:48:45;;;;;;;8.07;4.53;;;22.40;96.00;;;;;;5126696;28;20043;-78
2021/07/30 10:53:59;;;;;;;9.32;4.07;;;22.80;95.20;;;;;;5117945;28;20047;-78
2021/07/30 10:56:28;;;;;;;11.00;4.35;;;23.10;94.90;;;;;;5121273;28;20035;-78
2021/07/30 10:58:55;;;;;;;11.13;4.68;;;23.20;94.90;;;;;;5120973;27;20042;-78
2021/07/30 11:01:44;;;;;;;7.55;3.90;;;23.30;91.70;;;;;;5130019;27;20392;-77
2021/07/30 11:04:11;;;;;;;9.82;4.78;;;23.20;92.60;;;;;;5113262;27;20066;-77
2021/07/30 11:06:39;;;;;;;8.75;4.30;;;23.10;90.60;;;;;;5122488;27;20472;-78
2021/07/30 11:09:05;;;;;;;7.95;4.53;;;23.10;91.00;;;;;;5130091;27;20045;-78
2021/07/30 11:11:43;;;;;;;7.93;4.50;;;22.90;92.10;;;;;;5121218;27;20044;-78
2021/07/30 11:14:16;;;;;;;6.57;4.07;;;22.90;91.30;;;;;;5125709;27;20472;-77
2021/07/30 11:16:42;;;;;;;10.18;4.10;;;22.70;93.90;;;;;;5121254;27;20476;-78
2021/07/30 11:19:09;;;;;;;10.07;4.78;;;22.70;92.70;;;;;;5132619;27;20039;-78
2021/07/30 11:21:35;;;;;;;8.13;4.20;;;22.60;93.10;;;;;;5120358;27;20036;-78
2021/07/30 11:24:02;;;;;;;10.90;4.55;;;22.60;91.50;;;;;;5124094;27;20054;-78
2021/07/30 11:26:29;;;;;;;9.40;5.13;;;22.50;92.50;;;;;;5129922;27;20037;-78
2021/07/30 11:29:00;;;;;;;7.22;4.03;;;22.50;92.60;;;;;;5136608;27;20065;-77
2021/07/30 11:31:27;;;;;;;6.72;4.13;;;22.40;93.90;;;;;;5135306;27;20145;-78
2021/07/30 11:33:53;;;;;;;8.57;4.13;;;22.50;93.10;;;;;;5136093;27;20039;-78
2021/07/30 11:36:20;;;;;;;7.90;4.50;;;22.50;92.30;;;;;;5134916;27;20031;-77
2021/07/30 11:38:54;;;;;;;10.50;4.50;;;22.50;93.30;;;;;;5136872;27;20027;-78
2021/07/30 11:41:21;;;;;;;9.07;4.38;;;22.60;93.40;;;;;;5136633;27;20091;-78
2021/07/30 11:44:04;;;;;;;8.23;3.80;;;22.70;93.10;;;;;;5133178;27;20606;-77
2021/07/30 11:46:32;;;;;;;7.32;4.88;;;22.60;93.00;;;;;;5124750;27;20043;-79
2021/07/30 11:48:59;;;;;;;9.38;4.72;;;22.70;92.80;;;;;;5135211;27;20066;-78
2021/07/30 11:51:26;;;;;;;8.23;5.18;;;22.70;93.60;;;;;;5134679;27;20038;-79
2021/07/30 11:53:53;;;;;;;7.38;4.57;;;22.90;90.70;;;;;;5132024;27;20118;-78
2021/07/30 11:56:19;;;;;;;7.70;4.65;;;23.00;89.10;;;;;;5129927;27;20035;-79
2021/07/30 11:59:02;;;;;;;9.10;4.80;;;23.10;91.80;;;;;;5125778;27;20038;-77
2021/07/30 12:01:30;;;;;;;8.57;4.78;;;23.30;92.20;;;;;;5121429;27;20031;-79
2021/07/30 12:04:22;;;;;;;9.02;4.32;;;23.40;91.20;;;;;;5121919;27;20039;-79
2021/07/30 12:06:51;;;;;;;10.02;4.20;;;23.40;91.70;;;;;;5108122;27;20145;-77
2021/07/30 12:09:18;;;;;;;7.35;4.38;;;23.30;90.70;;;;;;5125435;27;20110;-80
2021/07/30 12:11:50;;;;;;;7.40;4.35;;;23.20;90.90;;;;;;5130090;27;20107;-79
2021/07/30 12:14:16;;;;;;;7.85;4.00;;;23.10;92.20;;;;;;5130606;27;20043;-79
2021/07/30 12:16:44;;;;;;;8.48;4.38;;;22.90;92.20;;;;;;5123731;27;20039;-79
2021/07/30 12:19:10;;;;;;;8.75;4.00;;;22.70;95.60;;;;;;5128928;27;20095;-81
2021/07/30 12:21:36;;;;;;;8.65;4.72;;;22.60;97.20;;;;;;5118604;27;20040;-81
2021/07/30 12:24:05;;;;;;;8.43;4.57;;;22.30;99.00;;;;;;5121912;27;20399;-81
2021/07/30 12:26:33;;;;;;;7.20;4.38;;;22.00;99.90;;;;;;5114972;27;20081;-80
2021/07/30 12:28:59;;;;;;;8.73;4.80;;;21.90;99.90;;;;;;5118302;27;20042;-80
2021/07/30 12:31:26;;;;;;;7.80;5.43;;;21.90;99.90;;;;;;5116327;27;20031;-81
2021/07/30 12:34:14;;;;;;;7.30;5.18;;;21.80;99.90;;;;;;5107624;27;20055;-80
2021/07/30 12:36:40;;;;;;;6.93;5.05;;;22.00;99.90;;;;;;5119073;27;20038;-82
2021/07/30 12:39:06;;;;;;;10.77;5.45;;;22.10;99.90;;;;;;5114627;27;20039;-84
2021/07/30 12:41:34;;;;;;;10.80;5.57;;;22.10;99.90;;;;;;5117845;27;20169;-78
2021/07/30 12:44:18;;;;;;;7.72;4.80;;;22.40;99.90;;;;;;5112133;27;20036;-84
2021/07/30 12:46:50;;;;;;;9.52;5.15;;;22.70;99.90;;;;;;5123602;27;20047;-85
2021/07/30 12:49:28;;;;;;;6.35;4.43;;;23.00;99.90;;;;;;5126345;27;20464;-80
2021/07/30 12:51:55;;;;;;;10.18;4.93;;;23.10;99.90;;;;;;5127893;27;20039;-80